sensor_id;sensor_type;location;lat;lon;timestamp;P1;durP1;ratioP1;P2;durP2;ratioP2
83326;SDS011;73250;55.594;13.020;2024-02-14T00:00:06;104.22;;;81.22;;
83326;SDS011;73250;55.594;13.020;2024-02-14T00:02:35;106.93;;;85.47;;
83326;SDS011;73250;55.594;13.020;2024-02-14T00:05:03;104.30;;;82.50;;
83326;SDS011;73250;55.594;13.020;2024-02-14T00:07:30;106.22;;;81.68;;
83326;SDS011;73250;55.594;13.020;2024-02-14T00:09:57;103.32;;;82.95;;
83326;SDS011;73250;55.594;13.020;2024-02-14T00:12:24;109.97;;;87.82;;
83326;SDS011;73250;55.594;13.020;2024-02-14T00:14:50;100.72;;;78.90;;
83326;SDS011;73250;55.594;13.020;2024-02-14T00:17:17;108.60;;;82.45;;
83326;SDS011;73250;55.594;13.020;2024-02-14T00:19:44;104.25;;;82.13;;
83326;SDS011;73250;55.594;13.020;2024-02-14T00:22:12;102.47;;;80.78;;
83326;SDS011;73250;55.594;13.020;2024-02-14T00:24:39;101.75;;;79.10;;
83326;SDS011;73250;55.594;13.020;2024-02-14T00:27:05;104.55;;;83.15;;
83326;SDS011;73250;55.594;13.020;2024-02-14T00:29:32;105.40;;;82.20;;
83326;SDS011;73250;55.594;13.020;2024-02-14T00:31:59;110.68;;;86.57;;
83326;SDS011;73250;55.594;13.020;2024-02-14T00:34:26;100.72;;;77.47;;
83326;SDS011;73250;55.594;13.020;2024-02-14T00:36:53;111.13;;;87.22;;
83326;SDS011;73250;55.594;13.020;2024-02-14T00:39:21;113.78;;;86.72;;
83326;SDS011;73250;55.594;13.020;2024-02-14T00:41:47;110.43;;;85.38;;
83326;SDS011;73250;55.594;13.020;2024-02-14T00:44:15;107.63;;;86.82;;
83326;SDS011;73250;55.594;13.020;2024-02-14T00:46:43;111.45;;;86.78;;
83326;SDS011;73250;55.594;13.020;2024-02-14T00:49:10;110.40;;;87.63;;
83326;SDS011;73250;55.594;13.020;2024-02-14T00:51:38;110.15;;;84.40;;
83326;SDS011;73250;55.594;13.020;2024-02-14T00:54:05;114.05;;;88.25;;
83326;SDS011;73250;55.594;13.020;2024-02-14T00:56:33;110.20;;;83.88;;
83326;SDS011;73250;55.594;13.020;2024-02-14T00:59:01;111.05;;;87.35;;
83326;SDS011;73250;55.594;13.020;2024-02-14T01:01:27;112.03;;;87.32;;
83326;SDS011;73250;55.594;13.020;2024-02-14T01:03:54;113.30;;;90.88;;
83326;SDS011;73250;55.594;13.020;2024-02-14T01:06:21;112.93;;;85.22;;
83326;SDS011;73250;55.594;13.020;2024-02-14T01:08:48;105.85;;;84.15;;
83326;SDS011;73250;55.594;13.020;2024-02-14T01:11:14;109.05;;;86.22;;
83326;SDS011;73250;55.594;13.020;2024-02-14T01:13:42;109.47;;;86.50;;
83326;SDS011;73250;55.594;13.020;2024-02-14T01:16:09;114.22;;;89.47;;
83326;SDS011;73250;55.594;13.020;2024-02-14T01:18:36;114.80;;;88.78;;
83326;SDS011;73250;55.594;13.020;2024-02-14T01:21:03;113.60;;;88.88;;
83326;SDS011;73250;55.594;13.020;2024-02-14T01:23:30;121.80;;;96.00;;
83326;SDS011;73250;55.594;13.020;2024-02-14T01:25:57;108.45;;;86.93;;
83326;SDS011;73250;55.594;13.020;2024-02-14T01:28:24;115.18;;;90.63;;
83326;SDS011;73250;55.594;13.020;2024-02-14T01:30:53;113.07;;;90.32;;
83326;SDS011;73250;55.594;13.020;2024-02-14T01:33:21;117.85;;;90.95;;
83326;SDS011;73250;55.594;13.020;2024-02-14T01:35:48;118.68;;;93.45;;
83326;SDS011;73250;55.594;13.020;2024-02-14T01:38:15;108.80;;;87.22;;
83326;SDS011;73250;55.594;13.020;2024-02-14T01:40:42;106.63;;;84.55;;
83326;SDS011;73250;55.594;13.020;2024-02-14T01:43:10;121.05;;;90.55;;
83326;SDS011;73250;55.594;13.020;2024-02-14T01:45:39;107.32;;;83.28;;
83326;SDS011;73250;55.594;13.020;2024-02-14T01:48:08;109.90;;;87.57;;
83326;SDS011;73250;55.594;13.020;2024-02-14T01:50:36;113.15;;;87.07;;
83326;SDS011;73250;55.594;13.020;2024-02-14T01:53:04;115.03;;;85.90;;
83326;SDS011;73250;55.594;13.020;2024-02-14T01:55:31;112.72;;;86.22;;
83326;SDS011;73250;55.594;13.020;2024-02-14T01:57:59;112.00;;;88.18;;
83326;SDS011;73250;55.594;13.020;2024-02-14T02:00:28;110.25;;;85.50;;
83326;SDS011;73250;55.594;13.020;2024-02-14T02:02:56;118.43;;;91.25;;
83326;SDS011;73250;55.594;13.020;2024-02-14T02:05:25;114.20;;;86.47;;
83326;SDS011;73250;55.594;13.020;2024-02-14T02:07:51;106.88;;;86.18;;
83326;SDS011;73250;55.594;13.020;2024-02-14T02:10:19;107.05;;;82.75;;
83326;SDS011;73250;55.594;13.020;2024-02-14T02:12:47;109.43;;;88.30;;
83326;SDS011;73250;55.594;13.020;2024-02-14T02:15:15;120.60;;;91.68;;
83326;SDS011;73250;55.594;13.020;2024-02-14T02:17:43;111.32;;;88.00;;
83326;SDS011;73250;55.594;13.020;2024-02-14T02:20:13;118.03;;;90.35;;
83326;SDS011;73250;55.594;13.020;2024-02-14T02:22:43;111.32;;;87.05;;
83326;SDS011;73250;55.594;13.020;2024-02-14T02:25:12;110.03;;;88.30;;
83326;SDS011;73250;55.594;13.020;2024-02-14T02:27:38;113.35;;;88.68;;
83326;SDS011;73250;55.594;13.020;2024-02-14T02:30:06;113.97;;;87.15;;
83326;SDS011;73250;55.594;13.020;2024-02-14T02:32:33;120.65;;;93.60;;
83326;SDS011;73250;55.594;13.020;2024-02-14T02:35:00;119.65;;;88.68;;
83326;SDS011;73250;55.594;13.020;2024-02-14T02:37:26;111.05;;;87.20;;
83326;SDS011;73250;55.594;13.020;2024-02-14T02:39:56;114.05;;;87.35;;
83326;SDS011;73250;55.594;13.020;2024-02-14T02:42:22;110.53;;;87.70;;
83326;SDS011;73250;55.594;13.020;2024-02-14T02:44:50;107.20;;;87.85;;
83326;SDS011;73250;55.594;13.020;2024-02-14T02:47:17;116.78;;;85.20;;
83326;SDS011;73250;55.594;13.020;2024-02-14T02:49:43;117.13;;;91.50;;
83326;SDS011;73250;55.594;13.020;2024-02-14T02:52:11;119.90;;;90.45;;
83326;SDS011;73250;55.594;13.020;2024-02-14T02:54:38;114.22;;;89.18;;
83326;SDS011;73250;55.594;13.020;2024-02-14T02:57:07;121.60;;;93.07;;
83326;SDS011;73250;55.594;13.020;2024-02-14T02:59:35;113.70;;;88.15;;
83326;SDS011;73250;55.594;13.020;2024-02-14T03:02:02;118.55;;;91.97;;
83326;SDS011;73250;55.594;13.020;2024-02-14T03:04:33;111.75;;;87.18;;
83326;SDS011;73250;55.594;13.020;2024-02-14T03:07:00;121.57;;;95.20;;
83326;SDS011;73250;55.594;13.020;2024-02-14T03:09:29;120.53;;;94.72;;
83326;SDS011;73250;55.594;13.020;2024-02-14T03:11:56;123.88;;;95.00;;
83326;SDS011;73250;55.594;13.020;2024-02-14T03:14:24;120.68;;;93.05;;
83326;SDS011;73250;55.594;13.020;2024-02-14T03:16:51;115.90;;;89.72;;
83326;SDS011;73250;55.594;13.020;2024-02-14T03:19:17;114.25;;;89.55;;
83326;SDS011;73250;55.594;13.020;2024-02-14T03:21:44;119.25;;;93.57;;
83326;SDS011;73250;55.594;13.020;2024-02-14T03:24:11;110.40;;;85.78;;
83326;SDS011;73250;55.594;13.020;2024-02-14T03:26:38;112.72;;;89.22;;
83326;SDS011;73250;55.594;13.020;2024-02-14T03:29:05;114.30;;;89.85;;
83326;SDS011;73250;55.594;13.020;2024-02-14T03:31:33;116.15;;;89.75;;
83326;SDS011;73250;55.594;13.020;2024-02-14T03:34:01;111.90;;;90.03;;
83326;SDS011;73250;55.594;13.020;2024-02-14T03:36:27;111.05;;;86.57;;
83326;SDS011;73250;55.594;13.020;2024-02-14T03:38:55;110.60;;;88.15;;
83326;SDS011;73250;55.594;13.020;2024-02-14T03:41:22;121.43;;;94.18;;
83326;SDS011;73250;55.594;13.020;2024-02-14T03:43:49;111.47;;;86.63;;
83326;SDS011;73250;55.594;13.020;2024-02-14T03:46:18;113.53;;;88.10;;
83326;SDS011;73250;55.594;13.020;2024-02-14T03:48:47;116.38;;;90.45;;
83326;SDS011;73250;55.594;13.020;2024-02-14T03:51:14;119.75;;;93.40;;
83326;SDS011;73250;55.594;13.020;2024-02-14T03:53:41;114.55;;;87.90;;
83326;SDS011;73250;55.594;13.020;2024-02-14T03:56:08;111.70;;;88.60;;
83326;SDS011;73250;55.594;13.020;2024-02-14T03:58:34;115.70;;;90.97;;
83326;SDS011;73250;55.594;13.020;2024-02-14T04:01:02;118.50;;;93.05;;
83326;SDS011;73250;55.594;13.020;2024-02-14T04:03:29;111.40;;;86.03;;
83326;SDS011;73250;55.594;13.020;2024-02-14T04:05:57;113.28;;;89.88;;
83326;SDS011;73250;55.594;13.020;2024-02-14T04:08:24;115.15;;;88.65;;
83326;SDS011;73250;55.594;13.020;2024-02-14T04:10:50;103.97;;;83.05;;
83326;SDS011;73250;55.594;13.020;2024-02-14T04:13:19;114.05;;;87.18;;
83326;SDS011;73250;55.594;13.020;2024-02-14T04:15:45;117.93;;;92.07;;
83326;SDS011;73250;55.594;13.020;2024-02-14T04:18:12;107.35;;;84.43;;
83326;SDS011;73250;55.594;13.020;2024-02-14T04:20:40;108.22;;;84.32;;
83326;SDS011;73250;55.594;13.020;2024-02-14T04:23:10;113.20;;;88.70;;
83326;SDS011;73250;55.594;13.020;2024-02-14T04:25:37;107.93;;;84.25;;
83326;SDS011;73250;55.594;13.020;2024-02-14T04:28:03;116.95;;;89.22;;
83326;SDS011;73250;55.594;13.020;2024-02-14T04:30:30;120.35;;;90.53;;
83326;SDS011;73250;55.594;13.020;2024-02-14T04:32:56;115.18;;;89.82;;
83326;SDS011;73250;55.594;13.020;2024-02-14T04:35:23;116.45;;;91.25;;
83326;SDS011;73250;55.594;13.020;2024-02-14T04:37:50;111.95;;;85.90;;
83326;SDS011;73250;55.594;13.020;2024-02-14T04:40:19;112.05;;;90.78;;
83326;SDS011;73250;55.594;13.020;2024-02-14T04:42:46;123.22;;;93.85;;
83326;SDS011;73250;55.594;13.020;2024-02-14T04:45:13;111.10;;;87.22;;
83326;SDS011;73250;55.594;13.020;2024-02-14T04:47:39;111.70;;;90.25;;
83326;SDS011;73250;55.594;13.020;2024-02-14T04:50:07;117.28;;;90.20;;
83326;SDS011;73250;55.594;13.020;2024-02-14T04:52:35;111.03;;;87.45;;
83326;SDS011;73250;55.594;13.020;2024-02-14T04:55:01;116.07;;;91.85;;
83326;SDS011;73250;55.594;13.020;2024-02-14T04:57:30;111.45;;;88.38;;
83326;SDS011;73250;55.594;13.020;2024-02-14T05:00:00;112.78;;;88.82;;
83326;SDS011;73250;55.594;13.020;2024-02-14T05:02:29;109.93;;;85.55;;
83326;SDS011;73250;55.594;13.020;2024-02-14T05:04:56;110.55;;;86.95;;
83326;SDS011;73250;55.594;13.020;2024-02-14T05:07:23;115.50;;;87.47;;
83326;SDS011;73250;55.594;13.020;2024-02-14T05:09:50;110.65;;;87.30;;
83326;SDS011;73250;55.594;13.020;2024-02-14T05:12:17;110.03;;;86.65;;
83326;SDS011;73250;55.594;13.020;2024-02-14T05:14:46;108.78;;;86.22;;
83326;SDS011;73250;55.594;13.020;2024-02-14T05:17:12;106.15;;;83.63;;
83326;SDS011;73250;55.594;13.020;2024-02-14T05:19:41;111.05;;;89.47;;
83326;SDS011;73250;55.594;13.020;2024-02-14T05:22:08;107.75;;;81.50;;
83326;SDS011;73250;55.594;13.020;2024-02-14T05:24:34;109.97;;;87.65;;
83326;SDS011;73250;55.594;13.020;2024-02-14T05:27:02;103.70;;;82.20;;
83326;SDS011;73250;55.594;13.020;2024-02-14T05:29:30;101.53;;;81.05;;
83326;SDS011;73250;55.594;13.020;2024-02-14T05:31:58;107.88;;;86.45;;
83326;SDS011;73250;55.594;13.020;2024-02-14T05:34:24;107.40;;;84.25;;
83326;SDS011;73250;55.594;13.020;2024-02-14T05:36:51;109.60;;;84.30;;
83326;SDS011;73250;55.594;13.020;2024-02-14T05:39:18;100.50;;;82.00;;
83326;SDS011;73250;55.594;13.020;2024-02-14T05:41:45;101.80;;;82.07;;
83326;SDS011;73250;55.594;13.020;2024-02-14T05:44:12;105.78;;;83.32;;
83326;SDS011;73250;55.594;13.020;2024-02-14T05:46:38;107.40;;;85.20;;
83326;SDS011;73250;55.594;13.020;2024-02-14T05:49:07;107.47;;;85.95;;
83326;SDS011;73250;55.594;13.020;2024-02-14T05:51:34;104.13;;;82.53;;
83326;SDS011;73250;55.594;13.020;2024-02-14T05:54:01;101.68;;;83.47;;
83326;SDS011;73250;55.594;13.020;2024-02-14T05:56:27;103.57;;;84.18;;
83326;SDS011;73250;55.594;13.020;2024-02-14T05:58:54;99.35;;;78.78;;
83326;SDS011;73250;55.594;13.020;2024-02-14T06:01:21;83.75;;;71.82;;
83326;SDS011;73250;55.594;13.020;2024-02-14T06:03:47;83.45;;;66.03;;
83326;SDS011;73250;55.594;13.020;2024-02-14T06:06:15;67.38;;;51.50;;
83326;SDS011;73250;55.594;13.020;2024-02-14T06:08:42;60.70;;;50.88;;
83326;SDS011;73250;55.594;13.020;2024-02-14T06:11:09;62.20;;;48.90;;
83326;SDS011;73250;55.594;13.020;2024-02-14T06:13:37;57.92;;;46.20;;
83326;SDS011;73250;55.594;13.020;2024-02-14T06:16:04;61.65;;;51.10;;
83326;SDS011;73250;55.594;13.020;2024-02-14T06:18:32;63.80;;;48.78;;
83326;SDS011;73250;55.594;13.020;2024-02-14T06:20:59;65.13;;;51.00;;
83326;SDS011;73250;55.594;13.020;2024-02-14T06:23:27;81.60;;;58.50;;
83326;SDS011;73250;55.594;13.020;2024-02-14T06:25:54;75.65;;;57.35;;
83326;SDS011;73250;55.594;13.020;2024-02-14T06:28:21;83.45;;;61.20;;
83326;SDS011;73250;55.594;13.020;2024-02-14T06:30:47;87.45;;;63.05;;
83326;SDS011;73250;55.594;13.020;2024-02-14T06:33:14;94.78;;;67.55;;
83326;SDS011;73250;55.594;13.020;2024-02-14T06:35:41;102.20;;;75.47;;
83326;SDS011;73250;55.594;13.020;2024-02-14T06:38:08;97.05;;;70.50;;
83326;SDS011;73250;55.594;13.020;2024-02-14T06:40:36;89.20;;;65.82;;
83326;SDS011;73250;55.594;13.020;2024-02-14T06:43:03;91.25;;;65.63;;
83326;SDS011;73250;55.594;13.020;2024-02-14T06:45:31;81.65;;;58.80;;
83326;SDS011;73250;55.594;13.020;2024-02-14T06:47:58;89.57;;;62.20;;
83326;SDS011;73250;55.594;13.020;2024-02-14T06:50:25;97.53;;;69.57;;
83326;SDS011;73250;55.594;13.020;2024-02-14T06:52:53;88.50;;;67.13;;
83326;SDS011;73250;55.594;13.020;2024-02-14T06:55:23;84.35;;;64.45;;
83326;SDS011;73250;55.594;13.020;2024-02-14T06:57:51;78.60;;;60.42;;
83326;SDS011;73250;55.594;13.020;2024-02-14T07:00:18;89.57;;;64.00;;
83326;SDS011;73250;55.594;13.020;2024-02-14T07:02:45;80.25;;;64.70;;
83326;SDS011;73250;55.594;13.020;2024-02-14T07:05:13;72.90;;;56.75;;
83326;SDS011;73250;55.594;13.020;2024-02-14T07:07:39;74.43;;;58.63;;
83326;SDS011;73250;55.594;13.020;2024-02-14T07:10:07;76.20;;;58.47;;
83326;SDS011;73250;55.594;13.020;2024-02-14T07:12:34;75.38;;;58.42;;
83326;SDS011;73250;55.594;13.020;2024-02-14T07:15:02;81.03;;;62.47;;
83326;SDS011;73250;55.594;13.020;2024-02-14T07:17:30;78.82;;;57.88;;
83326;SDS011;73250;55.594;13.020;2024-02-14T07:19:57;80.50;;;60.15;;
83326;SDS011;73250;55.594;13.020;2024-02-14T07:22:23;74.05;;;56.35;;
83326;SDS011;73250;55.594;13.020;2024-02-14T07:24:50;76.07;;;58.97;;
83326;SDS011;73250;55.594;13.020;2024-02-14T07:27:18;75.25;;;58.63;;
83326;SDS011;73250;55.594;13.020;2024-02-14T07:29:45;79.63;;;61.28;;
83326;SDS011;73250;55.594;13.020;2024-02-14T07:32:13;103.88;;;57.25;;
83326;SDS011;73250;55.594;13.020;2024-02-14T07:34:41;122.63;;;61.88;;
83326;SDS011;73250;55.594;13.020;2024-02-14T07:37:08;96.03;;;59.60;;
83326;SDS011;73250;55.594;13.020;2024-02-14T07:39:35;98.10;;;61.13;;
83326;SDS011;73250;55.594;13.020;2024-02-14T07:42:02;95.55;;;62.65;;
83326;SDS011;73250;55.594;13.020;2024-02-14T07:44:29;95.13;;;58.33;;
83326;SDS011;73250;55.594;13.020;2024-02-14T07:46:57;92.25;;;62.05;;
83326;SDS011;73250;55.594;13.020;2024-02-14T07:49:25;85.70;;;61.50;;
83326;SDS011;73250;55.594;13.020;2024-02-14T07:51:52;87.90;;;58.85;;
83326;SDS011;73250;55.594;13.020;2024-02-14T07:54:18;84.55;;;57.95;;
83326;SDS011;73250;55.594;13.020;2024-02-14T07:56:45;84.07;;;60.17;;
83326;SDS011;73250;55.594;13.020;2024-02-14T07:59:14;74.07;;;57.45;;
83326;SDS011;73250;55.594;13.020;2024-02-14T08:01:41;81.90;;;59.58;;
83326;SDS011;73250;55.594;13.020;2024-02-14T08:04:08;83.20;;;61.25;;
83326;SDS011;73250;55.594;13.020;2024-02-14T08:06:36;77.65;;;54.20;;
83326;SDS011;73250;55.594;13.020;2024-02-14T08:09:03;78.25;;;57.13;;
83326;SDS011;73250;55.594;13.020;2024-02-14T08:11:34;71.22;;;54.75;;
83326;SDS011;73250;55.594;13.020;2024-02-14T08:14:01;89.50;;;63.47;;
83326;SDS011;73250;55.594;13.020;2024-02-14T08:16:28;68.40;;;49.88;;
83326;SDS011;73250;55.594;13.020;2024-02-14T08:18:54;68.85;;;52.13;;
83326;SDS011;73250;55.594;13.020;2024-02-14T08:21:24;72.40;;;52.40;;
83326;SDS011;73250;55.594;13.020;2024-02-14T08:23:52;59.13;;;47.10;;
83326;SDS011;73250;55.594;13.020;2024-02-14T08:26:20;57.78;;;44.85;;
83326;SDS011;73250;55.594;13.020;2024-02-14T08:28:47;66.45;;;49.22;;
83326;SDS011;73250;55.594;13.020;2024-02-14T08:31:14;62.75;;;48.80;;
83326;SDS011;73250;55.594;13.020;2024-02-14T08:33:41;67.53;;;51.47;;
83326;SDS011;73250;55.594;13.020;2024-02-14T08:36:08;64.57;;;49.05;;
83326;SDS011;73250;55.594;13.020;2024-02-14T08:38:35;65.70;;;50.83;;
83326;SDS011;73250;55.594;13.020;2024-02-14T08:41:03;83.13;;;59.50;;
83326;SDS011;73250;55.594;13.020;2024-02-14T08:43:30;75.53;;;56.55;;
83326;SDS011;73250;55.594;13.020;2024-02-14T08:45:57;68.97;;;52.97;;
83326;SDS011;73250;55.594;13.020;2024-02-14T08:48:23;80.40;;;62.08;;
83326;SDS011;73250;55.594;13.020;2024-02-14T08:50:52;72.65;;;52.20;;
83326;SDS011;73250;55.594;13.020;2024-02-14T08:53:19;64.10;;;51.78;;
83326;SDS011;73250;55.594;13.020;2024-02-14T08:55:46;66.22;;;50.05;;
83326;SDS011;73250;55.594;13.020;2024-02-14T08:58:14;68.57;;;52.63;;
83326;SDS011;73250;55.594;13.020;2024-02-14T09:00:40;62.10;;;47.53;;
83326;SDS011;73250;55.594;13.020;2024-02-14T09:03:07;70.10;;;54.03;;
83326;SDS011;73250;55.594;13.020;2024-02-14T09:05:34;68.10;;;51.65;;
83326;SDS011;73250;55.594;13.020;2024-02-14T09:08:02;65.60;;;50.42;;
83326;SDS011;73250;55.594;13.020;2024-02-14T09:10:29;52.63;;;40.55;;
83326;SDS011;73250;55.594;13.020;2024-02-14T09:12:56;55.13;;;46.75;;
83326;SDS011;73250;55.594;13.020;2024-02-14T09:15:24;66.50;;;52.10;;
83326;SDS011;73250;55.594;13.020;2024-02-14T09:17:51;58.88;;;46.40;;
83326;SDS011;73250;55.594;13.020;2024-02-14T09:20:18;51.22;;;41.10;;
83326;SDS011;73250;55.594;13.020;2024-02-14T09:22:45;55.75;;;43.13;;
83326;SDS011;73250;55.594;13.020;2024-02-14T09:25:12;79.55;;;59.67;;
83326;SDS011;73250;55.594;13.020;2024-02-14T09:27:39;49.60;;;39.78;;
83326;SDS011;73250;55.594;13.020;2024-02-14T09:30:06;66.28;;;49.25;;
83326;SDS011;73250;55.594;13.020;2024-02-14T09:32:35;84.80;;;60.72;;
83326;SDS011;73250;55.594;13.020;2024-02-14T09:35:01;88.18;;;56.30;;
83326;SDS011;73250;55.594;13.020;2024-02-14T09:37:31;85.22;;;58.40;;
83326;SDS011;73250;55.594;13.020;2024-02-14T09:39:58;97.93;;;61.35;;
83326;SDS011;73250;55.594;13.020;2024-02-14T09:42:27;113.22;;;71.53;;
83326;SDS011;73250;55.594;13.020;2024-02-14T09:44:58;98.68;;;65.60;;
83326;SDS011;73250;55.594;13.020;2024-02-14T09:47:25;91.10;;;59.22;;
83326;SDS011;73250;55.594;13.020;2024-02-14T09:49:59;86.18;;;58.10;;
83326;SDS011;73250;55.594;13.020;2024-02-14T09:52:28;74.97;;;54.60;;
83326;SDS011;73250;55.594;13.020;2024-02-14T09:54:58;78.53;;;53.70;;
83326;SDS011;73250;55.594;13.020;2024-02-14T09:57:25;69.88;;;51.33;;
83326;SDS011;73250;55.594;13.020;2024-02-14T09:59:54;71.63;;;51.75;;
83326;SDS011;73250;55.594;13.020;2024-02-14T10:02:23;84.03;;;59.05;;
83326;SDS011;73250;55.594;13.020;2024-02-14T10:04:50;79.85;;;57.65;;
83326;SDS011;73250;55.594;13.020;2024-02-14T10:07:18;81.75;;;60.47;;
83326;SDS011;73250;55.594;13.020;2024-02-14T10:09:45;82.68;;;60.72;;
83326;SDS011;73250;55.594;13.020;2024-02-14T10:12:13;81.78;;;58.90;;
83326;SDS011;73250;55.594;13.020;2024-02-14T10:14:40;69.78;;;52.85;;
83326;SDS011;73250;55.594;13.020;2024-02-14T10:17:07;70.22;;;48.33;;
83326;SDS011;73250;55.594;13.020;2024-02-14T10:19:35;67.43;;;50.58;;
83326;SDS011;73250;55.594;13.020;2024-02-14T10:22:01;61.42;;;47.72;;
83326;SDS011;73250;55.594;13.020;2024-02-14T10:24:32;67.05;;;49.55;;
83326;SDS011;73250;55.594;13.020;2024-02-14T10:26:59;64.07;;;51.22;;
83326;SDS011;73250;55.594;13.020;2024-02-14T10:29:27;61.95;;;46.63;;
83326;SDS011;73250;55.594;13.020;2024-02-14T10:31:54;54.92;;;42.45;;
83326;SDS011;73250;55.594;13.020;2024-02-14T10:34:24;64.50;;;48.63;;
83326;SDS011;73250;55.594;13.020;2024-02-14T10:36:52;52.75;;;41.65;;
83326;SDS011;73250;55.594;13.020;2024-02-14T10:39:19;55.40;;;42.67;;
83326;SDS011;73250;55.594;13.020;2024-02-14T10:41:48;54.25;;;43.25;;
83326;SDS011;73250;55.594;13.020;2024-02-14T10:44:15;70.50;;;51.42;;
83326;SDS011;73250;55.594;13.020;2024-02-14T10:46:42;74.18;;;51.63;;
83326;SDS011;73250;55.594;13.020;2024-02-14T10:49:12;68.45;;;46.97;;
83326;SDS011;73250;55.594;13.020;2024-02-14T10:51:40;74.88;;;53.20;;
83326;SDS011;73250;55.594;13.020;2024-02-14T10:54:13;86.30;;;59.05;;
83326;SDS011;73250;55.594;13.020;2024-02-14T10:56:42;59.35;;;44.03;;
83326;SDS011;73250;55.594;13.020;2024-02-14T10:59:16;55.63;;;41.72;;
83326;SDS011;73250;55.594;13.020;2024-02-14T11:01:45;58.33;;;45.42;;
83326;SDS011;73250;55.594;13.020;2024-02-14T11:04:13;72.88;;;52.38;;
83326;SDS011;73250;55.594;13.020;2024-02-14T11:06:44;59.10;;;43.80;;
83326;SDS011;73250;55.594;13.020;2024-02-14T11:09:12;56.17;;;42.92;;
83326;SDS011;73250;55.594;13.020;2024-02-14T11:11:40;52.42;;;41.00;;
83326;SDS011;73250;55.594;13.020;2024-02-14T11:14:08;49.60;;;36.67;;
83326;SDS011;73250;55.594;13.020;2024-02-14T11:16:36;59.78;;;44.13;;
83326;SDS011;73250;55.594;13.020;2024-02-14T11:19:07;60.28;;;45.22;;
83326;SDS011;73250;55.594;13.020;2024-02-14T11:21:35;73.57;;;52.10;;
83326;SDS011;73250;55.594;13.020;2024-02-14T11:24:04;82.22;;;57.45;;
83326;SDS011;73250;55.594;13.020;2024-02-14T11:26:37;74.18;;;54.88;;
83326;SDS011;73250;55.594;13.020;2024-02-14T11:29:13;67.13;;;51.67;;
83326;SDS011;73250;55.594;13.020;2024-02-14T11:31:43;88.55;;;62.65;;
83326;SDS011;73250;55.594;13.020;2024-02-14T11:34:11;82.75;;;58.67;;
83326;SDS011;73250;55.594;13.020;2024-02-14T11:36:39;69.32;;;52.97;;
83326;SDS011;73250;55.594;13.020;2024-02-14T11:39:07;68.30;;;51.35;;
83326;SDS011;73250;55.594;13.020;2024-02-14T11:41:34;74.10;;;53.67;;
83326;SDS011;73250;55.594;13.020;2024-02-14T11:44:02;69.97;;;54.50;;
83326;SDS011;73250;55.594;13.020;2024-02-14T11:46:30;61.53;;;47.65;;
83326;SDS011;73250;55.594;13.020;2024-02-14T11:48:59;67.43;;;50.83;;
83326;SDS011;73250;55.594;13.020;2024-02-14T11:51:27;71.25;;;53.22;;
83326;SDS011;73250;55.594;13.020;2024-02-14T11:53:55;88.45;;;65.35;;
83326;SDS011;73250;55.594;13.020;2024-02-14T11:56:22;78.15;;;56.83;;
83326;SDS011;73250;55.594;13.020;2024-02-14T11:58:51;69.78;;;52.50;;
83326;SDS011;73250;55.594;13.020;2024-02-14T12:01:17;70.55;;;52.47;;
83326;SDS011;73250;55.594;13.020;2024-02-14T12:03:44;68.97;;;52.03;;
83326;SDS011;73250;55.594;13.020;2024-02-14T12:06:13;73.40;;;54.72;;
83326;SDS011;73250;55.594;13.020;2024-02-14T12:08:40;59.83;;;46.60;;
83326;SDS011;73250;55.594;13.020;2024-02-14T12:11:07;66.15;;;50.67;;
83326;SDS011;73250;55.594;13.020;2024-02-14T12:13:35;62.10;;;46.75;;
83326;SDS011;73250;55.594;13.020;2024-02-14T12:16:03;54.63;;;41.50;;
83326;SDS011;73250;55.594;13.020;2024-02-14T12:18:32;51.90;;;39.80;;
83326;SDS011;73250;55.594;13.020;2024-02-14T12:21:05;52.83;;;41.78;;
83326;SDS011;73250;55.594;13.020;2024-02-14T12:23:34;50.17;;;38.38;;
83326;SDS011;73250;55.594;13.020;2024-02-14T12:26:02;48.83;;;37.72;;
83326;SDS011;73250;55.594;13.020;2024-02-14T12:28:30;44.35;;;36.25;;
83326;SDS011;73250;55.594;13.020;2024-02-14T12:30:58;48.30;;;37.67;;
83326;SDS011;73250;55.594;13.020;2024-02-14T12:33:25;58.40;;;44.30;;
83326;SDS011;73250;55.594;13.020;2024-02-14T12:35:53;42.72;;;33.47;;
83326;SDS011;73250;55.594;13.020;2024-02-14T12:38:22;54.53;;;43.58;;
83326;SDS011;73250;55.594;13.020;2024-02-14T12:40:50;60.25;;;42.20;;
83326;SDS011;73250;55.594;13.020;2024-02-14T12:43:19;56.63;;;39.40;;
83326;SDS011;73250;55.594;13.020;2024-02-14T12:45:45;77.15;;;56.22;;
83326;SDS011;73250;55.594;13.020;2024-02-14T12:48:12;73.55;;;54.83;;
83326;SDS011;73250;55.594;13.020;2024-02-14T12:50:47;60.47;;;43.45;;
83326;SDS011;73250;55.594;13.020;2024-02-14T12:53:15;74.45;;;54.08;;
83326;SDS011;73250;55.594;13.020;2024-02-14T12:55:41;80.63;;;64.13;;
83326;SDS011;73250;55.594;13.020;2024-02-14T12:58:09;61.35;;;46.40;;
83326;SDS011;73250;55.594;13.020;2024-02-14T13:00:36;51.13;;;41.08;;
83326;SDS011;73250;55.594;13.020;2024-02-14T13:03:04;48.63;;;39.28;;
83326;SDS011;73250;55.594;13.020;2024-02-14T13:05:30;49.78;;;38.72;;
83326;SDS011;73250;55.594;13.020;2024-02-14T13:07:57;42.17;;;32.92;;
83326;SDS011;73250;55.594;13.020;2024-02-14T13:10:24;60.88;;;45.92;;
83326;SDS011;73250;55.594;13.020;2024-02-14T13:12:51;44.22;;;34.65;;
83326;SDS011;73250;55.594;13.020;2024-02-14T13:15:19;44.85;;;32.63;;
83326;SDS011;73250;55.594;13.020;2024-02-14T13:17:46;58.92;;;41.15;;
83326;SDS011;73250;55.594;13.020;2024-02-14T13:20:13;58.00;;;43.33;;
83326;SDS011;73250;55.594;13.020;2024-02-14T13:22:40;75.95;;;51.10;;
83326;SDS011;73250;55.594;13.020;2024-02-14T13:25:07;71.57;;;50.90;;
83326;SDS011;73250;55.594;13.020;2024-02-14T13:27:34;126.78;;;68.15;;
83326;SDS011;73250;55.594;13.020;2024-02-14T13:30:01;97.05;;;54.60;;
83326;SDS011;73250;55.594;13.020;2024-02-14T13:32:29;72.03;;;49.80;;
83326;SDS011;73250;55.594;13.020;2024-02-14T13:34:56;67.97;;;43.88;;
83326;SDS011;73250;55.594;13.020;2024-02-14T13:37:23;124.28;;;66.18;;
83326;SDS011;73250;55.594;13.020;2024-02-14T13:39:50;87.30;;;51.55;;
83326;SDS011;73250;55.594;13.020;2024-02-14T13:42:18;112.13;;;70.97;;
83326;SDS011;73250;55.594;13.020;2024-02-14T13:44:44;90.32;;;58.13;;
83326;SDS011;73250;55.594;13.020;2024-02-14T13:47:11;111.50;;;71.43;;
83326;SDS011;73250;55.594;13.020;2024-02-14T13:49:39;94.95;;;57.67;;
83326;SDS011;73250;55.594;13.020;2024-02-14T13:52:06;91.55;;;57.28;;
83326;SDS011;73250;55.594;13.020;2024-02-14T13:54:33;98.60;;;61.53;;
83326;SDS011;73250;55.594;13.020;2024-02-14T13:56:59;88.88;;;52.13;;
83326;SDS011;73250;55.594;13.020;2024-02-14T13:59:27;118.97;;;69.28;;
83326;SDS011;73250;55.594;13.020;2024-02-14T14:01:54;88.15;;;58.92;;
83326;SDS011;73250;55.594;13.020;2024-02-14T14:04:21;112.13;;;75.45;;